Shawswick, Indiana
Current Conditions -  °F | °C
As of 6:53 AM on Thursday 27 Nov 2014 (Local Time) from KBMG Reporting Station
Broken Clouds Broken Clouds  
Wind Chill: 19°   Ceiling: 2000
Heat Index: 27°   Visibility: 10mi
Dew Point: 21°   Wind: 8mph
Humidity: 78%   Direction: 330°NNW
Pressure: 30.25"   Gusts: NA
Location:  38.8737°N, 86.4563°W
Report Text: KBMG 271153Z 33007KT 290V350 10SM BKN020 M03/M06 A3025 RMK AO2 SLP251 60000 T10281061 11011 21028 53027
Loading
Personal Weather Stations






























Interactive Weather Map New forecast layout! Learn more

10-Day Weather Forecast

Advertisements
Track Severe Weather on mobile